Costao, Brazil
Current Conditions -  °F | °C
As of 8:10 AM on Wednesday 22 Oct 2014 (Local Time) from SBCO Reporting Station
Moderate Fog Moderate Fog  
Wind Chill: 61°   Ceiling: Unl
Heat Index: 61°   Visibility: 0.18mi
Dew Point: 59°   Wind: 5mph
Humidity: 94%   Direction: 130°SE
Pressure: 30.18"   Gusts: NA
Location:  29.44°S, 51.91°W
Report Text: SBCO 221010Z 13004KT 0300 R30/0600 R12/P2000 FG NSC 16/15 Q1022
Loading
Personal Weather Stations






























Interactive Weather Map
Tropical Storm Tracking
New forecast layout! Learn more

10-Day Weather Forecast

Advertisements
Track Severe Weather on mobile